createdAt,value
2014-06-15T00:00:45.438Z,50.17
2014-06-15T00:01:49.425Z,50.03
2014-06-15T00:02:54.116Z,50.28
2014-06-15T00:03:58.805Z,50.34
2014-06-15T00:05:03.494Z,50.53
2014-06-15T00:06:08.466Z,51.06
2014-06-15T00:07:13.154Z,50.61
2014-06-15T00:08:17.844Z,51.65
2014-06-15T00:09:22.815Z,50.7
2014-06-15T00:10:27.505Z,50.97
2014-06-15T00:11:32.195Z,50.76
2014-06-15T00:12:36.867Z,50.85
2014-06-15T00:13:41.854Z,51.35
2014-06-15T00:14:46.543Z,51.07
2014-06-15T00:15:51.514Z,51
2014-06-15T00:16:56.206Z,51.25
2014-06-15T00:18:01.175Z,50.75
2014-06-15T00:19:05.866Z,50.91
2014-06-15T00:20:10.555Z,50.52
2014-06-15T00:21:15.229Z,51.38
2014-06-15T00:22:20.215Z,51.18
2014-06-15T00:23:24.904Z,51.47
2014-06-15T00:24:29.594Z,51.83
2014-06-15T00:25:34.283Z,51.87
2014-06-15T00:26:38.973Z,51.68
2014-06-15T00:27:43.662Z,51.23
2014-06-15T00:28:48.648Z,51.7
2014-06-15T00:29:53.338Z,51.75
2014-06-15T00:30:58.028Z,51.44
2014-06-15T00:32:02.719Z,51.6
2014-06-15T00:33:07.408Z,52.01
2014-06-15T00:34:11.410Z,51.87
2014-06-15T00:35:16.083Z,51.87
2014-06-15T00:36:21.071Z,51.79
2014-06-15T00:37:26.056Z,52.02
2014-06-15T00:38:30.748Z,52.82
2014-06-15T00:39:35.733Z,52.27
2014-06-15T00:40:40.407Z,52.07
2014-06-15T00:41:45.394Z,52.5
2014-06-15T00:42:50.083Z,52.38
2014-06-15T00:43:54.773Z,52.08
2014-06-15T00:44:59.759Z,52.23
2014-06-15T00:46:04.449Z,52.3
2014-06-15T00:47:09.123Z,52.93
2014-06-15T00:48:14.406Z,52.81
2014-06-15T00:49:19.096Z,53.39
2014-06-15T00:50:24.082Z,52.53
2014-06-15T00:51:29.053Z,52.46
2014-06-15T00:52:33.742Z,52.82
2014-06-15T00:53:38.729Z,53.15
2014-06-15T00:54:43.418Z,53.37
2014-06-15T00:55:48.405Z,53.32
2014-06-15T00:56:53.392Z,54.4
2014-06-15T00:57:58.066Z,54.31
2014-06-15T00:59:02.755Z,53.42
2014-06-15T01:00:07.444Z,53.28
2014-06-15T01:01:12.728Z,53.1
2014-06-15T01:02:17.729Z,53.2
2014-06-15T01:03:22.700Z,52.83
2014-06-15T01:04:27.389Z,53.13
2014-06-15T01:05:32.078Z,53.37
2014-06-15T01:06:37.050Z,53.59
2014-06-15T01:07:42.037Z,53.9
2014-06-15T01:08:46.727Z,53.38
2014-06-15T01:09:51.713Z,54
2014-06-15T01:10:56.700Z,53.99
2014-06-15T01:12:01.374Z,53.99
2014-06-15T01:13:06.063Z,53.77
2014-06-15T01:14:10.736Z,53.57
2014-06-15T01:15:15.426Z,54.02
2014-06-15T01:16:20.100Z,54.24
2014-06-15T01:17:24.789Z,53.77
2014-06-15T01:18:29.479Z,54.21
2014-06-15T01:19:34.152Z,53.94
2014-06-15T01:20:38.842Z,54
2014-06-15T01:21:43.515Z,53.71
2014-06-15T01:22:48.206Z,53.84
2014-06-15T01:23:52.881Z,54.37
2014-06-15T01:24:57.570Z,54.66
2014-06-15T01:26:02.260Z,54.64
2014-06-15T01:27:06.933Z,54.71
2014-06-15T01:28:11.623Z,54.16
2014-06-15T01:29:16.312Z,55.24
2014-06-15T01:30:20.986Z,55.34
2014-06-15T01:31:25.660Z,55.28
2014-06-15T01:32:30.350Z,55.54
2014-06-15T01:33:35.040Z,55.93
2014-06-15T01:34:39.714Z,55.91
2014-06-15T01:35:44.403Z,55.79
2014-06-15T01:36:49.390Z,55.73
2014-06-15T01:37:54.064Z,55.82
2014-06-15T01:38:58.754Z,55.5
2014-06-15T01:40:03.427Z,55.98
2014-06-15T01:41:08.117Z,56.43
2014-06-15T01:42:12.790Z,57.21
2014-06-15T01:43:17.480Z,57.55
2014-06-15T01:44:22.154Z,57.24
2014-06-15T01:45:26.843Z,57.84
2014-06-15T01:46:31.533Z,56.85
2014-06-15T01:47:36.206Z,57.35
2014-06-15T01:48:40.895Z,56.34
2014-06-15T01:49:45.570Z,57.34
2014-06-15T01:50:50.259Z,57.95
2014-06-15T01:51:54.934Z,58.71
2014-06-15T01:52:59.922Z,58.28
2014-06-15T01:54:04.595Z,57.09
2014-06-15T01:55:09.284Z,58.14
2014-06-15T01:56:13.958Z,58.62
2014-06-15T01:57:18.943Z,58.31
2014-06-15T01:58:23.634Z,58.37
2014-06-15T01:59:28.308Z,58.6
2014-06-15T02:00:32.996Z,58.2
2014-06-15T02:01:37.967Z,56.81
2014-06-15T02:02:42.657Z,57.02
2014-06-15T02:03:46.956Z,57.3
2014-06-15T02:04:51.629Z,56.94
2014-06-15T02:05:56.915Z,56.85
2014-06-15T02:07:01.604Z,57.66
2014-06-15T02:08:06.278Z,58.08
2014-06-15T02:09:10.967Z,57.47
2014-06-15T02:10:15.657Z,57.23
2014-06-15T02:11:20.330Z,56.95
2014-06-15T02:12:25.316Z,56.61
2014-06-15T02:13:29.991Z,56.29
2014-06-15T02:14:34.680Z,56.13
2014-06-15T02:15:39.369Z,56.07
2014-06-15T02:16:44.059Z,56.36
2014-06-15T02:17:48.748Z,56.05
2014-06-15T02:18:53.422Z,56.52
2014-06-15T02:19:58.119Z,57.08
2014-06-15T02:21:02.832Z,57.37
2014-06-15T02:22:07.857Z,56.89
2014-06-15T02:23:12.570Z,56.68
2014-06-15T02:24:17.299Z,56.04
2014-06-15T02:25:22.025Z,56.48
2014-06-15T02:26:26.711Z,56.29
2014-06-15T02:27:31.415Z,56.73
2014-06-15T02:28:36.102Z,56.83
2014-06-15T02:29:40.805Z,56.44
2014-06-15T02:30:45.492Z,56.3
2014-06-15T02:31:50.187Z,56.87
2014-06-15T02:32:54.865Z,56.81
2014-06-15T02:33:59.864Z,56.76
2014-06-15T02:35:04.557Z,57.22
2014-06-15T02:36:09.233Z,57.47
2014-06-15T02:37:13.924Z,56.9
2014-06-15T02:38:18.600Z,57.17
2014-06-15T02:39:23.291Z,56.73
2014-06-15T02:40:27.967Z,56.71
2014-06-15T02:41:32.660Z,56.57
2014-06-15T02:42:37.349Z,56.48
2014-06-15T02:43:42.321Z,56.84
2014-06-15T02:44:47.011Z,56.65
2014-06-15T02:45:51.701Z,57.3
2014-06-15T02:46:56.375Z,57.6
2014-06-15T02:48:01.064Z,57.54
2014-06-15T02:49:06.347Z,57.14
2014-06-15T02:50:11.318Z,57.28
2014-06-15T02:51:16.008Z,57.14
2014-06-15T02:52:20.683Z,57.41
2014-06-15T02:53:25.371Z,57.49
2014-06-15T02:54:30.045Z,57.64
2014-06-15T02:55:34.735Z,57.45
2014-06-15T02:56:39.706Z,57.6
2014-06-15T02:57:44.395Z,57.68
2014-06-15T02:58:49.070Z,57.25
2014-06-15T02:59:53.759Z,57.19
2014-06-15T03:00:58.449Z,57.43
2014-06-15T03:02:03.122Z,58.5
2014-06-15T03:03:07.812Z,58.3
2014-06-15T03:04:12.501Z,58.14
2014-06-15T03:05:17.191Z,57.8
2014-06-15T03:06:21.865Z,57.66
2014-06-15T03:07:26.554Z,57.63
2014-06-15T03:08:31.243Z,57.29
2014-06-15T03:09:35.918Z,57.24
2014-06-15T03:10:40.904Z,57.68
2014-06-15T03:11:45.577Z,57.86
2014-06-15T03:12:50.563Z,57.49
2014-06-15T03:13:55.238Z,58.1
2014-06-15T03:15:00.226Z,59.77
2014-06-15T03:16:04.914Z,59.05
2014-06-15T03:17:09.589Z,59.79
2014-06-15T03:18:14.278Z,59.84
2014-06-15T03:19:18.952Z,59.67
2014-06-15T03:20:23.642Z,60.59
2014-06-15T03:21:28.614Z,60.67
2014-06-15T03:22:33.599Z,60.6
2014-06-15T03:23:38.288Z,60.8
2014-06-15T03:24:42.963Z,60.74
2014-06-15T03:25:47.653Z,60.57
2014-06-15T03:26:52.623Z,60.44
2014-06-15T03:27:57.313Z,60.65
2014-06-15T03:29:02.299Z,60.66
2014-06-15T03:30:06.973Z,60.97
2014-06-15T03:31:11.960Z,61.35
2014-06-15T03:32:16.648Z,61.3
2014-06-15T03:33:21.322Z,60.06
2014-06-15T03:34:26.013Z,60.38
2014-06-15T03:35:30.686Z,60.6
2014-06-15T03:36:35.672Z,59.52
2014-06-15T03:37:40.361Z,58.87
2014-06-15T03:38:45.036Z,59.71
2014-06-15T03:39:49.725Z,60.05
2014-06-15T03:40:54.414Z,60.32
2014-06-15T03:41:59.105Z,59.54
2014-06-15T03:43:03.780Z,59.82
2014-06-15T03:44:08.469Z,59.2
2014-06-15T03:45:13.454Z,59.74
2014-06-15T03:46:18.144Z,60.12
2014-06-15T03:47:22.819Z,59.71
2014-06-15T03:48:26.820Z,59.8
2014-06-15T03:49:31.509Z,59.43
2014-06-15T03:50:36.200Z,58.91
2014-06-15T03:51:40.874Z,58.33
2014-06-15T03:52:45.562Z,58.53
2014-06-15T03:53:50.252Z,58.47
2014-06-15T03:54:54.926Z,58.98
2014-06-15T03:55:59.617Z,58.76
2014-06-15T03:57:04.306Z,58.68
2014-06-15T03:58:08.979Z,58.54
2014-06-15T03:59:13.669Z,58.72
2014-06-15T04:00:18.656Z,58.36
2014-06-15T04:01:23.346Z,58.78
2014-06-15T04:02:28.019Z,58.56
2014-06-15T04:03:32.724Z,58.73
2014-06-15T04:04:37.413Z,58.09
2014-06-15T04:05:42.384Z,58.61
2014-06-15T04:06:47.074Z,59.06
2014-06-15T04:07:51.075Z,58.75
2014-06-15T04:08:56.061Z,58.57
2014-06-15T04:10:01.347Z,58.66
2014-06-15T04:11:06.318Z,58.58
2014-06-15T04:12:11.006Z,59.15
2014-06-15T04:13:15.696Z,58.87
2014-06-15T04:14:20.683Z,58.74
2014-06-15T04:15:25.357Z,58.46
2014-06-15T04:16:30.344Z,58.45
2014-06-15T04:17:35.346Z,58.73
2014-06-15T04:18:40.020Z,58.43
2014-06-15T04:19:44.709Z,58.66
2014-06-15T04:20:49.383Z,58.76
2014-06-15T04:21:54.370Z,59.28
2014-06-15T04:22:59.043Z,59.11
2014-06-15T04:24:04.029Z,59.09
2014-06-15T04:25:08.720Z,58.94
2014-06-15T04:26:13.394Z,58.71
2014-06-15T04:27:18.379Z,58.7
2014-06-15T04:28:23.350Z,58.53
2014-06-15T04:29:28.039Z,58.5
2014-06-15T04:30:32.713Z,58.56
2014-06-15T04:31:37.403Z,58.67
2014-06-15T04:32:42.077Z,58.29
2014-06-15T04:33:46.766Z,58.12
2014-06-15T04:34:51.440Z,58.64
2014-06-15T04:35:56.129Z,58.66
2014-06-15T04:37:00.805Z,59.1
2014-06-15T04:38:05.792Z,59.58
2014-06-15T04:39:10.465Z,59.53
2014-06-15T04:40:15.155Z,59.62
2014-06-15T04:41:19.828Z,59.15
2014-06-15T04:42:24.518Z,58.87
2014-06-15T04:43:29.207Z,59.01
2014-06-15T04:44:33.880Z,58.12
2014-06-15T04:45:38.571Z,57.77
2014-06-15T04:46:43.261Z,57.11
2014-06-15T04:47:47.935Z,56.87
2014-06-15T04:48:52.624Z,56.99
2014-06-15T04:49:57.298Z,56.63
2014-06-15T04:51:01.988Z,56.8
2014-06-15T04:52:06.677Z,57.12
2014-06-15T04:53:11.351Z,56.8
2014-06-15T04:54:16.041Z,56.31
2014-06-15T04:55:20.714Z,56.39
2014-06-15T04:56:25.404Z,56.15
2014-06-15T04:57:30.077Z,56.28
2014-06-15T04:58:34.766Z,56.73
2014-06-15T04:59:39.754Z,56.31
2014-06-15T05:00:44.427Z,55.13
2014-06-15T05:01:49.116Z,54.67
2014-06-15T05:02:53.807Z,54.5
2014-06-15T05:03:58.481Z,53.88
2014-06-15T05:05:03.468Z,53.79
2014-06-15T05:06:08.142Z,53.42
2014-06-15T05:07:12.831Z,53.72
2014-06-15T05:08:17.521Z,53.2
2014-06-15T05:09:22.195Z,52.55
2014-06-15T05:10:27.180Z,53.16
2014-06-15T05:11:32.152Z,53.26
2014-06-15T05:12:36.842Z,52.11
2014-06-15T05:13:41.516Z,52.35
2014-06-15T05:14:46.206Z,52.29
2014-06-15T05:15:50.895Z,52.18
2014-06-15T05:16:55.569Z,52.63
2014-06-15T05:18:00.258Z,51.52
2014-06-15T05:19:05.229Z,51.51
2014-06-15T05:20:09.919Z,51.68
2014-06-15T05:21:14.608Z,52.06
2014-06-15T05:22:19.282Z,53.02
2014-06-15T05:23:23.971Z,52.18
2014-06-15T05:24:28.957Z,51.16
2014-06-15T05:25:33.631Z,50.78
2014-06-15T05:26:38.618Z,50.79
2014-06-15T05:27:42.619Z,50.4
2014-06-15T05:28:46.902Z,50.59
2014-06-15T05:29:51.593Z,51.08
2014-06-15T05:30:56.281Z,50.73
2014-06-15T05:32:00.957Z,49.88
2014-06-15T05:33:05.647Z,49.57
2014-06-15T05:34:10.336Z,49.54
2014-06-15T05:35:15.010Z,49.45
2014-06-15T05:36:19.700Z,50.68
2014-06-15T05:37:23.702Z,49.7
2014-06-15T05:38:28.671Z,50.31
2014-06-15T05:39:33.362Z,50.16
2014-06-15T05:40:38.035Z,50.29
2014-06-15T05:41:43.021Z,49.51
2014-06-15T05:42:47.726Z,50.39
2014-06-15T05:43:52.400Z,49.12
2014-06-15T05:44:57.090Z,49.2
2014-06-15T05:46:01.781Z,48.54
2014-06-15T05:47:06.455Z,49.02
2014-06-15T05:48:11.440Z,49.45
2014-06-15T05:49:16.428Z,49.49
2014-06-15T05:50:21.102Z,48.62
2014-06-15T05:51:25.790Z,48.21
2014-06-15T05:52:30.480Z,48.25
2014-06-15T05:53:35.155Z,48.47
2014-06-15T05:54:40.141Z,48.17
2014-06-15T05:55:45.126Z,49.44
2014-06-15T05:56:50.097Z,49.1
2014-06-15T05:57:54.787Z,49.2
2014-06-15T05:58:59.478Z,48.29
2014-06-15T06:00:04.151Z,47.54
2014-06-15T06:01:08.840Z,46.84
2014-06-15T06:02:13.827Z,47.23
2014-06-15T06:03:18.798Z,47.6
2014-06-15T06:04:23.487Z,47.07
2014-06-15T06:05:28.178Z,46.36
2014-06-15T06:06:33.163Z,47.08
2014-06-15T06:07:37.852Z,46.85
2014-06-15T06:08:42.526Z,45.39
2014-06-15T06:09:47.216Z,42.35
2014-06-15T06:10:51.905Z,39.11
2014-06-15T06:11:56.594Z,35.49
2014-06-15T06:13:01.271Z,32.93
2014-06-15T06:14:05.960Z,31.62
2014-06-15T06:15:10.946Z,30.61
2014-06-15T06:16:15.636Z,29.86
2014-06-15T06:17:20.326Z,28.56
2014-06-15T06:18:25.014Z,27.79
2014-06-15T06:19:29.704Z,27.68
2014-06-15T06:20:34.393Z,27.24
2014-06-15T06:21:39.083Z,27.32
2014-06-15T06:22:43.772Z,26.5
2014-06-15T06:23:48.462Z,25.78
2014-06-15T06:24:53.448Z,25.76
2014-06-15T06:25:58.152Z,25.1
2014-06-15T06:27:02.845Z,24.96
2014-06-15T06:28:06.847Z,24.32
2014-06-15T06:29:11.552Z,24.23
2014-06-15T06:30:16.240Z,24.07
2014-06-15T06:31:21.242Z,23.82
2014-06-15T06:32:25.933Z,24.56
2014-06-15T06:33:31.215Z,24.17
2014-06-15T06:34:35.920Z,26
2014-06-15T06:35:40.610Z,30.63
2014-06-15T06:36:45.298Z,33.18
2014-06-15T06:37:49.989Z,35.27
2014-06-15T06:38:54.678Z,35.94
2014-06-15T06:39:59.385Z,36.54
2014-06-15T06:41:03.684Z,37.36
2014-06-15T06:42:08.373Z,38.17
2014-06-15T06:43:13.359Z,41.49
2014-06-15T06:44:18.065Z,43.02
2014-06-15T06:45:22.755Z,43.71
2014-06-15T06:46:27.443Z,44.07
2014-06-15T06:47:32.133Z,43.15
2014-06-15T06:48:36.822Z,42.67
2014-06-15T06:49:41.512Z,43.16
2014-06-15T06:50:46.201Z,42.99
2014-06-15T06:51:50.891Z,43.02
2014-06-15T06:52:55.580Z,44.02
2014-06-15T06:54:00.584Z,44.21
2014-06-15T06:55:05.257Z,45.05
2014-06-15T06:56:09.963Z,44.31
2014-06-15T06:57:14.653Z,44.88
2014-06-15T06:58:19.638Z,45.8
2014-06-15T06:59:24.327Z,47.07
2014-06-15T07:00:29.017Z,45.02
2014-06-15T07:01:34.002Z,44.54
2014-06-15T07:02:38.693Z,45.23
2014-06-15T07:03:43.382Z,46.65
2014-06-15T07:04:48.072Z,48.49
2014-06-15T07:05:52.760Z,47.15
2014-06-15T07:06:57.748Z,46.1
2014-06-15T07:08:02.423Z,45.47
2014-06-15T07:09:07.112Z,45.03
2014-06-15T07:10:11.803Z,44.67
2014-06-15T07:11:16.475Z,44.77
2014-06-15T07:12:21.462Z,45.02
2014-06-15T07:13:26.151Z,44.86
2014-06-15T07:14:30.840Z,45.34
2014-06-15T07:15:35.812Z,44.45
2014-06-15T07:16:40.501Z,44.88
2014-06-15T07:17:45.190Z,47.32
2014-06-15T07:18:50.177Z,45.97
2014-06-15T07:19:54.851Z,45.55
2014-06-15T07:20:59.557Z,45.17
2014-06-15T07:22:04.544Z,46.29
2014-06-15T07:23:09.217Z,44.9
2014-06-15T07:24:14.204Z,45.16
2014-06-15T07:25:18.893Z,47.05
2014-06-15T07:26:23.583Z,45.33
2014-06-15T07:27:28.272Z,45.57
2014-06-15T07:28:32.946Z,45.29
2014-06-15T07:29:37.635Z,43.8
2014-06-15T07:30:42.325Z,45.87
2014-06-15T07:31:47.014Z,45.18
2014-06-15T07:32:51.688Z,42.79
2014-06-15T07:33:56.378Z,40.76
2014-06-15T07:35:01.068Z,40.38
2014-06-15T07:36:05.759Z,40.62
2014-06-15T07:37:10.729Z,42.03
2014-06-15T07:38:15.418Z,42.47
2014-06-15T07:39:19.420Z,42.4
2014-06-15T07:40:24.406Z,41.46
2014-06-15T07:41:29.096Z,45.5
2014-06-15T07:42:33.769Z,45.78
2014-06-15T07:43:38.458Z,43.28
2014-06-15T07:44:43.149Z,42.28
2014-06-15T07:45:47.837Z,42.09
2014-06-15T07:46:52.511Z,42.49
2014-06-15T07:47:57.202Z,43.93
2014-06-15T07:49:01.892Z,42.49
2014-06-15T07:50:06.879Z,42.58
2014-06-15T07:51:11.568Z,43.8
2014-06-15T07:52:16.242Z,44.6
2014-06-15T07:53:20.931Z,43.23
2014-06-15T07:54:25.620Z,42.65
2014-06-15T07:55:30.310Z,42.66
2014-06-15T07:56:34.985Z,42.26
2014-06-15T07:57:39.674Z,41.74
2014-06-15T07:58:44.660Z,42.27
2014-06-15T07:59:49.351Z,41.94
2014-06-15T08:00:54.025Z,42.19
2014-06-15T08:01:59.011Z,43.59
2014-06-15T08:03:03.700Z,41.47
2014-06-15T08:04:08.390Z,42.23
2014-06-15T08:05:13.079Z,43.77
2014-06-15T08:06:17.753Z,43.48
2014-06-15T08:07:22.443Z,42.95
2014-06-15T08:08:27.429Z,44.2
2014-06-15T08:09:32.400Z,44.67
2014-06-15T08:10:37.090Z,42.78
2014-06-15T08:11:41.092Z,40.99
2014-06-15T08:12:45.781Z,41.1
2014-06-15T08:13:50.470Z,41.63
2014-06-15T08:14:55.442Z,42.44
2014-06-15T08:16:00.131Z,43.28
2014-06-15T08:17:04.821Z,42.19
2014-06-15T08:18:09.511Z,41.52
2014-06-15T08:19:14.185Z,42.57
2014-06-15T08:20:18.873Z,41.55
2014-06-15T08:21:23.564Z,41.13
2014-06-15T08:22:28.253Z,41.73
2014-06-15T08:23:32.942Z,41.94
2014-06-15T08:24:37.615Z,42.1
2014-06-15T08:25:42.305Z,41.93
2014-06-15T08:26:47.291Z,42.52
2014-06-15T08:27:51.981Z,41.95
2014-06-15T08:28:56.670Z,43.13
2014-06-15T08:30:01.346Z,42.43
2014-06-15T08:31:06.036Z,41.64
2014-06-15T08:32:10.724Z,41.89
2014-06-15T08:33:15.415Z,42.49
2014-06-15T08:34:20.104Z,41.11
2014-06-15T08:35:24.777Z,40.37
2014-06-15T08:36:29.467Z,40.02
2014-06-15T08:37:33.469Z,40.47
2014-06-15T08:38:38.455Z,40.29
2014-06-15T08:39:42.457Z,40.63
2014-06-15T08:40:47.443Z,39.47
2014-06-15T08:41:52.133Z,39.41
2014-06-15T08:42:56.807Z,42.25
2014-06-15T08:44:01.498Z,40.94
2014-06-15T08:45:06.188Z,40.82
2014-06-15T08:46:11.174Z,40.4
2014-06-15T08:47:16.159Z,41.68
2014-06-15T08:48:20.849Z,40.03
2014-06-15T08:49:25.538Z,40.37
2014-06-15T08:50:30.228Z,39.95
2014-06-15T08:51:34.917Z,40.07
2014-06-15T08:52:39.607Z,39.01
2014-06-15T08:53:44.296Z,39.79
2014-06-15T08:54:48.986Z,41.37
2014-06-15T08:55:53.675Z,40.9
2014-06-15T08:56:58.365Z,39.46
2014-06-15T08:58:03.353Z,40.09
2014-06-15T08:59:08.340Z,39.57
2014-06-15T09:00:13.029Z,40.36
2014-06-15T09:01:17.703Z,40.37
2014-06-15T09:02:22.393Z,40.29
2014-06-15T09:03:27.082Z,40.53
2014-06-15T09:04:31.772Z,39.58
2014-06-15T09:05:36.461Z,38.94
2014-06-15T09:06:41.448Z,38.46
2014-06-15T09:07:46.137Z,37.99
2014-06-15T09:08:50.827Z,37.43
2014-06-15T09:09:55.516Z,37.4
2014-06-15T09:11:00.206Z,39.31
2014-06-15T09:12:04.896Z,38.64
2014-06-15T09:13:09.600Z,38.04
2014-06-15T09:14:14.290Z,41.22
2014-06-15T09:15:18.979Z,42.05
2014-06-15T09:16:23.965Z,40.36
2014-06-15T09:17:28.655Z,39.02
2014-06-15T09:18:33.345Z,38.45
2014-06-15T09:19:38.035Z,38.23
2014-06-15T09:20:42.724Z,37.58
2014-06-15T09:21:47.414Z,38.02
2014-06-15T09:22:52.088Z,38.27
2014-06-15T09:23:56.777Z,39.43
2014-06-15T09:25:01.764Z,38.41
2014-06-15T09:26:06.453Z,38.93
2014-06-15T09:27:11.424Z,38.21
2014-06-15T09:28:16.113Z,38.95
2014-06-15T09:29:20.803Z,37.93
2014-06-15T09:30:25.492Z,38.55
2014-06-15T09:31:30.182Z,40.01
2014-06-15T09:32:34.856Z,39.81
2014-06-15T09:33:39.545Z,42.71
2014-06-15T09:34:44.532Z,41.21
2014-06-15T09:35:49.221Z,39.98
2014-06-15T09:36:53.894Z,39.3
2014-06-15T09:37:58.585Z,39.91
2014-06-15T09:39:03.276Z,38.86
2014-06-15T09:40:08.261Z,38.76
2014-06-15T09:41:12.951Z,39.12
2014-06-15T09:42:17.640Z,41.82
2014-06-15T09:43:22.314Z,40.39
2014-06-15T09:44:27.004Z,39.7
2014-06-15T09:45:31.693Z,39.55
2014-06-15T09:46:36.382Z,39.89
2014-06-15T09:47:41.056Z,39.69
2014-06-15T09:48:45.746Z,38.13
2014-06-15T09:49:51.028Z,38.14
2014-06-15T09:50:55.718Z,37.21
2014-06-15T09:52:00.407Z,36.3
2014-06-15T09:53:05.099Z,36.85
2014-06-15T09:54:09.788Z,36.6
2014-06-15T09:55:14.760Z,36.26
2014-06-15T09:56:19.449Z,36.55
2014-06-15T09:57:24.138Z,38.73
2014-06-15T09:58:28.828Z,37.63
2014-06-15T09:59:33.516Z,38.02
2014-06-15T10:00:38.206Z,38.29
2014-06-15T10:01:42.896Z,39.99
2014-06-15T10:02:47.585Z,39.02
2014-06-15T10:03:52.275Z,39.99
2014-06-15T10:04:56.964Z,41.86
2014-06-15T10:06:01.656Z,43.46
2014-06-15T10:07:05.657Z,42.65
2014-06-15T10:08:10.362Z,43.01
2014-06-15T10:09:15.052Z,42.05
2014-06-15T10:10:19.741Z,41.47
2014-06-15T10:11:24.743Z,41.31
2014-06-15T10:12:29.730Z,40.57
2014-06-15T10:13:34.419Z,40.77
2014-06-15T10:14:39.109Z,42.49
2014-06-15T10:15:43.798Z,42.36
2014-06-15T10:16:48.487Z,42.01
2014-06-15T10:17:53.176Z,40.36
2014-06-15T10:18:57.866Z,39.43
2014-06-15T10:20:02.542Z,39.6
2014-06-15T10:21:07.231Z,38.22
2014-06-15T10:22:11.921Z,37.87
2014-06-15T10:23:16.610Z,37.73
2014-06-15T10:24:21.300Z,38.37
2014-06-15T10:25:26.286Z,37.92
2014-06-15T10:26:30.975Z,39.09
2014-06-15T10:27:35.664Z,38.49
2014-06-15T10:28:39.666Z,39
2014-06-15T10:29:44.356Z,37.94
2014-06-15T10:30:49.342Z,37.76
2014-06-15T10:31:54.031Z,37.45
2014-06-15T10:32:59.018Z,35.8
2014-06-15T10:34:03.709Z,36.73
2014-06-15T10:35:08.414Z,37.75
2014-06-15T10:36:13.104Z,38.18
2014-06-15T10:37:17.793Z,36.94
2014-06-15T10:38:22.780Z,38.1
2014-06-15T10:39:27.766Z,39.06
2014-06-15T10:40:32.455Z,37.32
2014-06-15T10:41:37.144Z,37.93
2014-06-15T10:42:41.835Z,37.46
2014-06-15T10:43:46.524Z,37.56
2014-06-15T10:44:51.213Z,38.13
2014-06-15T10:45:56.199Z,39.81
2014-06-15T10:47:01.185Z,40.53
2014-06-15T10:48:05.877Z,39.41
2014-06-15T10:49:10.863Z,40.15
2014-06-15T10:50:15.568Z,39.1
2014-06-15T10:51:20.258Z,39.13
2014-06-15T10:52:24.946Z,38.91
2014-06-15T10:53:29.636Z,38.46
2014-06-15T10:54:34.325Z,39.21
2014-06-15T10:55:39.313Z,40.7
2014-06-15T10:56:43.315Z,40.41
2014-06-15T10:57:47.988Z,39.71
2014-06-15T10:58:52.677Z,38.85
2014-06-15T10:59:57.367Z,39.5
2014-06-15T11:01:02.055Z,38.89
2014-06-15T11:02:06.732Z,38.55
2014-06-15T11:03:11.718Z,38.56
2014-06-15T11:04:16.704Z,39.15
2014-06-15T11:05:21.691Z,39.58
2014-06-15T11:06:26.380Z,39.83
2014-06-15T11:07:31.367Z,39.96
2014-06-15T11:08:36.056Z,40.87
2014-06-15T11:09:41.027Z,39.44
2014-06-15T11:10:45.717Z,39.53
2014-06-15T11:11:50.407Z,39.47
2014-06-15T11:12:55.096Z,38.47
2014-06-15T11:13:59.771Z,38.67
2014-06-15T11:15:04.460Z,38.48
2014-06-15T11:16:09.149Z,38.82
2014-06-15T11:17:13.838Z,39.98
2014-06-15T11:18:18.529Z,41.06
2014-06-15T11:19:23.515Z,40.48
2014-06-15T11:20:28.203Z,41.11
2014-06-15T11:21:32.877Z,40.42
2014-06-15T11:22:37.567Z,40.4
2014-06-15T11:23:42.256Z,40.51
2014-06-15T11:24:46.946Z,40.19
2014-06-15T11:25:51.635Z,41.76
2014-06-15T11:26:56.314Z,41.13
2014-06-15T11:28:01.337Z,39.99
2014-06-15T11:29:06.101Z,39.67
2014-06-15T11:30:10.829Z,39.35
2014-06-15T11:31:15.552Z,39.83
2014-06-15T11:32:20.239Z,39.69
2014-06-15T11:33:24.941Z,39.66
2014-06-15T11:34:29.644Z,39.66
2014-06-15T11:35:34.643Z,40.89
2014-06-15T11:36:39.346Z,40.5
2014-06-15T11:37:44.024Z,38.96
2014-06-15T11:38:48.718Z,38.49
2014-06-15T11:39:53.413Z,37.37
2014-06-15T11:40:58.387Z,39.64
2014-06-15T11:42:03.086Z,39.73
2014-06-15T11:43:07.776Z,39.62
2014-06-15T11:44:12.468Z,38.41
2014-06-15T11:45:17.159Z,39.57
2014-06-15T11:46:22.147Z,38.68
2014-06-15T11:47:26.837Z,40.68
2014-06-15T11:48:31.527Z,39.48
2014-06-15T11:49:36.218Z,38.96
2014-06-15T11:50:41.190Z,39.15
2014-06-15T11:51:46.176Z,38.56
2014-06-15T11:52:50.866Z,38.42
2014-06-15T11:53:55.852Z,39.25
2014-06-15T11:55:00.541Z,38.9
2014-06-15T11:56:05.218Z,39.82
2014-06-15T11:57:09.922Z,39.03
2014-06-15T11:58:14.611Z,39.01
2014-06-15T11:59:19.285Z,39.62
2014-06-15T12:00:23.990Z,39.63
2014-06-15T12:01:28.977Z,39.42
2014-06-15T12:02:33.666Z,38.82
2014-06-15T12:03:38.356Z,38.19
2014-06-15T12:04:43.326Z,37.4
2014-06-15T12:05:48.015Z,39.29
2014-06-15T12:06:52.704Z,39.51
2014-06-15T12:07:56.707Z,39.58
2014-06-15T12:09:01.396Z,40.1
2014-06-15T12:10:06.072Z,39.23
2014-06-15T12:11:10.762Z,39.2
2014-06-15T12:12:15.451Z,39.49
2014-06-15T12:13:20.140Z,39.24
2014-06-15T12:14:24.831Z,38.17
2014-06-15T12:15:29.519Z,38.23
2014-06-15T12:16:34.210Z,37.95
2014-06-15T12:17:39.195Z,38.44
2014-06-15T12:18:44.167Z,38.85
2014-06-15T12:19:48.856Z,38.42
2014-06-15T12:20:53.843Z,38.22
2014-06-15T12:21:58.532Z,38.81
2014-06-15T12:23:03.222Z,38.89
2014-06-15T12:24:07.912Z,38.11
2014-06-15T12:25:12.601Z,38.89
2014-06-15T12:26:17.290Z,38.3
2014-06-15T12:27:21.964Z,39.09
2014-06-15T12:28:26.654Z,39.5
2014-06-15T12:29:31.343Z,39.23
2014-06-15T12:30:36.330Z,38.84
2014-06-15T12:31:41.019Z,39.33
2014-06-15T12:32:45.709Z,40.06
2014-06-15T12:33:50.398Z,40.44
2014-06-15T12:34:55.383Z,39.46
2014-06-15T12:36:00.371Z,39.51
2014-06-15T12:37:05.062Z,38.32
2014-06-15T12:38:09.751Z,40.16
2014-06-15T12:39:14.440Z,40.74
2014-06-15T12:40:19.442Z,40.96
2014-06-15T12:41:24.132Z,40.05
2014-06-15T12:42:28.821Z,40.45
2014-06-15T12:43:33.808Z,40.23
2014-06-15T12:44:38.497Z,40.31
2014-06-15T12:45:43.484Z,41.52
2014-06-15T12:46:48.174Z,41.24
2014-06-15T12:47:53.160Z,40.83
2014-06-15T12:48:57.850Z,39.47
2014-06-15T12:50:02.836Z,39.82
2014-06-15T12:51:07.526Z,39.61
2014-06-15T12:52:12.512Z,39.11
2014-06-15T12:53:17.202Z,39.45
2014-06-15T12:54:21.891Z,39.18
2014-06-15T12:55:26.580Z,38.59
2014-06-15T12:56:31.269Z,38.92
2014-06-15T12:57:36.257Z,39.41
2014-06-15T12:58:40.946Z,40.02
2014-06-15T12:59:45.650Z,38.67
2014-06-15T13:00:50.356Z,37.7
2014-06-15T13:01:55.030Z,37.26
2014-06-15T13:02:59.734Z,37.54
2014-06-15T13:04:04.426Z,36.82
2014-06-15T13:05:09.115Z,36.43
2014-06-15T13:06:13.805Z,37.36
2014-06-15T13:07:18.493Z,37.47
2014-06-15T13:08:23.167Z,36.63
2014-06-15T13:09:27.857Z,36.1
2014-06-15T13:10:32.547Z,37.87
2014-06-15T13:11:37.237Z,37.51
2014-06-15T13:12:41.925Z,36.53
2014-06-15T13:13:46.599Z,35.8
2014-06-15T13:14:51.290Z,36.91
2014-06-15T13:15:55.978Z,36.11
2014-06-15T13:17:00.668Z,36.49
2014-06-15T13:18:05.343Z,36.18
2014-06-15T13:19:10.330Z,36.91
2014-06-15T13:20:15.018Z,36.1
2014-06-15T13:21:19.709Z,37.07
2014-06-15T13:22:24.398Z,37.85
2014-06-15T13:23:29.088Z,36.95
2014-06-15T13:24:33.777Z,36.76
2014-06-15T13:25:38.451Z,35.79
2014-06-15T13:26:43.141Z,35.1
2014-06-15T13:27:48.127Z,35.87
2014-06-15T13:28:52.818Z,35.58
2014-06-15T13:29:57.507Z,35.33
2014-06-15T13:31:02.493Z,35.27
2014-06-15T13:32:07.479Z,36.04
2014-06-15T13:33:12.169Z,37.12
2014-06-15T13:34:16.859Z,36.66
2014-06-15T13:35:21.845Z,36.83
2014-06-15T13:36:26.519Z,36.63
2014-06-15T13:37:31.208Z,36.11
2014-06-15T13:38:35.210Z,35.84
2014-06-15T13:39:39.899Z,36.51
2014-06-15T13:40:44.589Z,36.85
2014-06-15T13:41:49.575Z,37.72
2014-06-15T13:42:54.264Z,37.21
2014-06-15T13:43:58.954Z,37.86
2014-06-15T13:45:03.940Z,37.6
2014-06-15T13:46:08.928Z,37.21
2014-06-15T13:47:13.618Z,37.45
2014-06-15T13:48:18.604Z,37.33
2014-06-15T13:49:23.293Z,37.33
2014-06-15T13:50:27.984Z,37.22
2014-06-15T13:51:32.672Z,36.68
2014-06-15T13:52:37.362Z,36.92
2014-06-15T13:53:42.051Z,36.82
2014-06-15T13:54:47.037Z,36.6
2014-06-15T13:55:51.727Z,36.87
2014-06-15T13:56:56.416Z,36.25